sensor_id;sensor_type;location;lat;lon;timestamp;P1;durP1;ratioP1;P2;durP2;ratioP2
73136;SDS011;67767;45.636;11.756;2024-01-15T00:01:53;101.30;;;49.67;;
73136;SDS011;67767;45.636;11.756;2024-01-15T00:04:19;98.30;;;48.20;;
73136;SDS011;67767;45.636;11.756;2024-01-15T00:06:45;101.40;;;50.70;;
73136;SDS011;67767;45.636;11.756;2024-01-15T00:09:11;111.83;;;54.70;;
73136;SDS011;67767;45.636;11.756;2024-01-15T00:11:36;104.57;;;51.30;;
73136;SDS011;67767;45.636;11.756;2024-01-15T00:14:02;104.83;;;50.70;;
73136;SDS011;67767;45.636;11.756;2024-01-15T00:16:28;99.47;;;51.00;;
73136;SDS011;67767;45.636;11.756;2024-01-15T00:18:54;100.73;;;49.83;;
73136;SDS011;67767;45.636;11.756;2024-01-15T00:21:19;102.63;;;49.85;;
73136;SDS011;67767;45.636;11.756;2024-01-15T00:23:45;99.07;;;49.63;;
73136;SDS011;67767;45.636;11.756;2024-01-15T00:26:11;100.22;;;48.95;;
73136;SDS011;67767;45.636;11.756;2024-01-15T00:28:37;99.63;;;49.23;;
73136;SDS011;67767;45.636;11.756;2024-01-15T00:31:04;102.10;;;49.08;;
73136;SDS011;67767;45.636;11.756;2024-01-15T00:33:30;92.80;;;47.95;;
73136;SDS011;67767;45.636;11.756;2024-01-15T00:35:56;96.68;;;49.33;;
73136;SDS011;67767;45.636;11.756;2024-01-15T00:38:21;99.00;;;48.97;;
73136;SDS011;67767;45.636;11.756;2024-01-15T00:40:47;102.60;;;49.42;;
73136;SDS011;67767;45.636;11.756;2024-01-15T00:43:13;101.57;;;49.55;;
73136;SDS011;67767;45.636;11.756;2024-01-15T00:45:39;105.93;;;51.67;;
73136;SDS011;67767;45.636;11.756;2024-01-15T00:48:05;103.15;;;51.83;;
73136;SDS011;67767;45.636;11.756;2024-01-15T00:50:31;94.57;;;47.30;;
73136;SDS011;67767;45.636;11.756;2024-01-15T00:52:57;95.67;;;47.60;;
73136;SDS011;67767;45.636;11.756;2024-01-15T00:55:23;95.95;;;49.67;;
73136;SDS011;67767;45.636;11.756;2024-01-15T00:57:48;99.20;;;51.17;;
73136;SDS011;67767;45.636;11.756;2024-01-15T01:00:14;103.72;;;50.15;;
73136;SDS011;67767;45.636;11.756;2024-01-15T01:02:40;108.17;;;51.23;;
73136;SDS011;67767;45.636;11.756;2024-01-15T01:05:05;103.80;;;49.35;;
73136;SDS011;67767;45.636;11.756;2024-01-15T01:07:31;107.50;;;50.67;;
73136;SDS011;67767;45.636;11.756;2024-01-15T01:09:57;100.28;;;50.63;;
73136;SDS011;67767;45.636;11.756;2024-01-15T01:12:23;104.60;;;50.83;;
73136;SDS011;67767;45.636;11.756;2024-01-15T01:14:48;109.15;;;51.45;;
73136;SDS011;67767;45.636;11.756;2024-01-15T01:17:14;97.53;;;49.23;;
73136;SDS011;67767;45.636;11.756;2024-01-15T01:19:40;100.93;;;50.63;;
73136;SDS011;67767;45.636;11.756;2024-01-15T01:22:05;95.87;;;49.20;;
73136;SDS011;67767;45.636;11.756;2024-01-15T01:24:31;100.47;;;48.85;;
73136;SDS011;67767;45.636;11.756;2024-01-15T01:26:57;97.97;;;50.50;;
73136;SDS011;67767;45.636;11.756;2024-01-15T01:29:22;100.25;;;48.80;;
73136;SDS011;67767;45.636;11.756;2024-01-15T01:31:48;102.63;;;48.33;;
73136;SDS011;67767;45.636;11.756;2024-01-15T01:34:14;98.40;;;48.38;;
73136;SDS011;67767;45.636;11.756;2024-01-15T01:36:44;97.57;;;49.10;;
73136;SDS011;67767;45.636;11.756;2024-01-15T01:39:10;97.43;;;49.00;;
73136;SDS011;67767;45.636;11.756;2024-01-15T01:41:35;92.07;;;47.28;;
73136;SDS011;67767;45.636;11.756;2024-01-15T01:44:03;97.90;;;47.87;;
73136;SDS011;67767;45.636;11.756;2024-01-15T01:46:29;98.43;;;47.92;;
73136;SDS011;67767;45.636;11.756;2024-01-15T01:48:55;91.78;;;47.13;;
73136;SDS011;67767;45.636;11.756;2024-01-15T01:51:22;94.10;;;47.10;;
73136;SDS011;67767;45.636;11.756;2024-01-15T01:53:49;98.60;;;49.60;;
73136;SDS011;67767;45.636;11.756;2024-01-15T01:56:16;98.43;;;48.90;;
73136;SDS011;67767;45.636;11.756;2024-01-15T01:58:43;98.68;;;51.17;;
73136;SDS011;67767;45.636;11.756;2024-01-15T02:01:10;96.38;;;48.97;;
73136;SDS011;67767;45.636;11.756;2024-01-15T02:03:38;111.30;;;50.23;;
73136;SDS011;67767;45.636;11.756;2024-01-15T02:06:05;103.70;;;51.42;;
73136;SDS011;67767;45.636;11.756;2024-01-15T02:08:31;102.72;;;51.45;;
73136;SDS011;67767;45.636;11.756;2024-01-15T02:10:56;96.95;;;50.40;;
73136;SDS011;67767;45.636;11.756;2024-01-15T02:13:22;96.83;;;49.10;;
73136;SDS011;67767;45.636;11.756;2024-01-15T02:15:48;105.57;;;48.70;;
73136;SDS011;67767;45.636;11.756;2024-01-15T02:18:13;108.77;;;50.57;;
73136;SDS011;67767;45.636;11.756;2024-01-15T02:20:39;110.63;;;50.47;;
73136;SDS011;67767;45.636;11.756;2024-01-15T02:23:07;111.85;;;50.58;;
73136;SDS011;67767;45.636;11.756;2024-01-15T02:25:38;103.28;;;49.75;;
73136;SDS011;67767;45.636;11.756;2024-01-15T02:28:06;98.47;;;48.60;;
73136;SDS011;67767;45.636;11.756;2024-01-15T02:30:35;105.22;;;47.58;;
73136;SDS011;67767;45.636;11.756;2024-01-15T02:33:04;99.53;;;47.72;;
73136;SDS011;67767;45.636;11.756;2024-01-15T02:35:29;101.57;;;50.30;;
73136;SDS011;67767;45.636;11.756;2024-01-15T02:37:55;98.53;;;49.20;;
73136;SDS011;67767;45.636;11.756;2024-01-15T02:40:21;100.00;;;48.42;;
73136;SDS011;67767;45.636;11.756;2024-01-15T02:42:46;94.60;;;48.27;;
73136;SDS011;67767;45.636;11.756;2024-01-15T02:45:12;106.03;;;49.50;;
73136;SDS011;67767;45.636;11.756;2024-01-15T02:47:38;101.53;;;50.38;;
73136;SDS011;67767;45.636;11.756;2024-01-15T02:50:04;102.23;;;50.03;;
73136;SDS011;67767;45.636;11.756;2024-01-15T02:52:30;102.13;;;50.35;;
73136;SDS011;67767;45.636;11.756;2024-01-15T02:54:56;102.47;;;49.85;;
73136;SDS011;67767;45.636;11.756;2024-01-15T02:57:21;99.20;;;47.47;;
73136;SDS011;67767;45.636;11.756;2024-01-15T02:59:47;96.50;;;47.15;;
73136;SDS011;67767;45.636;11.756;2024-01-15T03:02:13;94.40;;;47.57;;
73136;SDS011;67767;45.636;11.756;2024-01-15T03:04:42;96.20;;;48.30;;
73136;SDS011;67767;45.636;11.756;2024-01-15T03:07:09;94.50;;;46.03;;
73136;SDS011;67767;45.636;11.756;2024-01-15T03:09:34;97.45;;;48.45;;
73136;SDS011;67767;45.636;11.756;2024-01-15T03:12:00;107.60;;;49.40;;
73136;SDS011;67767;45.636;11.756;2024-01-15T03:14:25;110.43;;;51.95;;
73136;SDS011;67767;45.636;11.756;2024-01-15T03:16:52;109.77;;;51.03;;
73136;SDS011;67767;45.636;11.756;2024-01-15T03:19:17;107.00;;;51.10;;
73136;SDS011;67767;45.636;11.756;2024-01-15T03:21:43;105.10;;;48.10;;
73136;SDS011;67767;45.636;11.756;2024-01-15T03:24:09;103.70;;;50.30;;
73136;SDS011;67767;45.636;11.756;2024-01-15T03:26:34;105.57;;;50.90;;
73136;SDS011;67767;45.636;11.756;2024-01-15T03:29:00;96.55;;;47.97;;
73136;SDS011;67767;45.636;11.756;2024-01-15T03:31:26;99.70;;;48.17;;
73136;SDS011;67767;45.636;11.756;2024-01-15T03:33:51;103.60;;;49.60;;
73136;SDS011;67767;45.636;11.756;2024-01-15T03:36:17;105.93;;;48.00;;
73136;SDS011;67767;45.636;11.756;2024-01-15T03:38:42;107.53;;;51.50;;
73136;SDS011;67767;45.636;11.756;2024-01-15T03:41:08;108.32;;;51.83;;
73136;SDS011;67767;45.636;11.756;2024-01-15T03:43:34;108.70;;;52.33;;
73136;SDS011;67767;45.636;11.756;2024-01-15T03:45:59;99.88;;;49.35;;
73136;SDS011;67767;45.636;11.756;2024-01-15T03:48:25;104.83;;;49.73;;
73136;SDS011;67767;45.636;11.756;2024-01-15T03:50:51;104.72;;;51.88;;
73136;SDS011;67767;45.636;11.756;2024-01-15T03:53:16;106.23;;;51.10;;
73136;SDS011;67767;45.636;11.756;2024-01-15T03:55:42;105.60;;;50.77;;
73136;SDS011;67767;45.636;11.756;2024-01-15T03:58:08;105.32;;;50.50;;
73136;SDS011;67767;45.636;11.756;2024-01-15T04:00:33;100.73;;;48.70;;
73136;SDS011;67767;45.636;11.756;2024-01-15T04:02:59;105.35;;;50.45;;
73136;SDS011;67767;45.636;11.756;2024-01-15T04:05:25;101.63;;;48.63;;
73136;SDS011;67767;45.636;11.756;2024-01-15T04:07:51;102.00;;;49.63;;
73136;SDS011;67767;45.636;11.756;2024-01-15T04:10:16;104.90;;;48.78;;
73136;SDS011;67767;45.636;11.756;2024-01-15T04:12:42;102.83;;;48.53;;
73136;SDS011;67767;45.636;11.756;2024-01-15T04:15:08;100.73;;;47.20;;
73136;SDS011;67767;45.636;11.756;2024-01-15T04:17:33;105.33;;;48.40;;
73136;SDS011;67767;45.636;11.756;2024-01-15T04:19:59;97.45;;;47.97;;
73136;SDS011;67767;45.636;11.756;2024-01-15T04:22:26;94.40;;;46.87;;
73136;SDS011;67767;45.636;11.756;2024-01-15T04:24:52;94.60;;;47.03;;
73136;SDS011;67767;45.636;11.756;2024-01-15T04:27:18;94.83;;;46.47;;
73136;SDS011;67767;45.636;11.756;2024-01-15T04:29:43;95.25;;;46.85;;
73136;SDS011;67767;45.636;11.756;2024-01-15T04:32:09;97.30;;;45.30;;
73136;SDS011;67767;45.636;11.756;2024-01-15T04:34:35;98.43;;;47.23;;
73136;SDS011;67767;45.636;11.756;2024-01-15T04:37:01;96.85;;;47.60;;
73136;SDS011;67767;45.636;11.756;2024-01-15T04:39:27;96.10;;;45.23;;
73136;SDS011;67767;45.636;11.756;2024-01-15T04:41:52;98.13;;;47.45;;
73136;SDS011;67767;45.636;11.756;2024-01-15T04:44:18;100.50;;;49.53;;
73136;SDS011;67767;45.636;11.756;2024-01-15T04:46:44;101.40;;;46.67;;
73136;SDS011;67767;45.636;11.756;2024-01-15T04:49:10;101.90;;;48.43;;
73136;SDS011;67767;45.636;11.756;2024-01-15T04:51:36;103.20;;;49.17;;
73136;SDS011;67767;45.636;11.756;2024-01-15T04:54:02;93.18;;;46.75;;
73136;SDS011;67767;45.636;11.756;2024-01-15T04:56:27;94.43;;;44.60;;
73136;SDS011;67767;45.636;11.756;2024-01-15T04:58:53;91.90;;;45.38;;
73136;SDS011;67767;45.636;11.756;2024-01-15T05:01:19;98.80;;;46.77;;
73136;SDS011;67767;45.636;11.756;2024-01-15T05:03:44;98.80;;;47.95;;
73136;SDS011;67767;45.636;11.756;2024-01-15T05:06:10;101.47;;;44.20;;
73136;SDS011;67767;45.636;11.756;2024-01-15T05:08:36;93.83;;;45.97;;
73136;SDS011;67767;45.636;11.756;2024-01-15T05:11:01;98.93;;;43.78;;
73136;SDS011;67767;45.636;11.756;2024-01-15T05:13:27;91.00;;;45.33;;
73136;SDS011;67767;45.636;11.756;2024-01-15T05:15:53;92.60;;;45.90;;
73136;SDS011;67767;45.636;11.756;2024-01-15T05:18:19;95.15;;;44.53;;
73136;SDS011;67767;45.636;11.756;2024-01-15T05:20:44;90.23;;;43.40;;
73136;SDS011;67767;45.636;11.756;2024-01-15T05:23:10;90.88;;;41.38;;
73136;SDS011;67767;45.636;11.756;2024-01-15T05:25:36;90.97;;;43.67;;
73136;SDS011;67767;45.636;11.756;2024-01-15T05:28:01;100.37;;;46.20;;
73136;SDS011;67767;45.636;11.756;2024-01-15T05:30:27;103.00;;;47.58;;
73136;SDS011;67767;45.636;11.756;2024-01-15T05:32:53;88.35;;;42.33;;
73136;SDS011;67767;45.636;11.756;2024-01-15T05:35:19;84.23;;;39.83;;
73136;SDS011;67767;45.636;11.756;2024-01-15T05:37:45;85.57;;;40.28;;
73136;SDS011;67767;45.636;11.756;2024-01-15T05:40:11;80.15;;;38.70;;
73136;SDS011;67767;45.636;11.756;2024-01-15T05:42:41;87.53;;;39.67;;
73136;SDS011;67767;45.636;11.756;2024-01-15T05:45:07;84.75;;;42.20;;
73136;SDS011;67767;45.636;11.756;2024-01-15T05:47:33;86.53;;;41.05;;
73136;SDS011;67767;45.636;11.756;2024-01-15T05:50:00;84.47;;;38.33;;
73136;SDS011;67767;45.636;11.756;2024-01-15T05:52:26;84.70;;;39.97;;
73136;SDS011;67767;45.636;11.756;2024-01-15T05:54:51;74.53;;;37.90;;
73136;SDS011;67767;45.636;11.756;2024-01-15T05:57:17;79.17;;;37.77;;
73136;SDS011;67767;45.636;11.756;2024-01-15T05:59:44;85.10;;;38.10;;
73136;SDS011;67767;45.636;11.756;2024-01-15T06:02:09;80.93;;;37.75;;
73136;SDS011;67767;45.636;11.756;2024-01-15T06:04:35;81.43;;;37.13;;
73136;SDS011;67767;45.636;11.756;2024-01-15T06:07:01;76.18;;;36.00;;
73136;SDS011;67767;45.636;11.756;2024-01-15T06:09:27;80.20;;;34.40;;
73136;SDS011;67767;45.636;11.756;2024-01-15T06:11:53;74.70;;;35.10;;
73136;SDS011;67767;45.636;11.756;2024-01-15T06:14:19;78.10;;;35.03;;
73136;SDS011;67767;45.636;11.756;2024-01-15T06:16:45;78.67;;;36.13;;
73136;SDS011;67767;45.636;11.756;2024-01-15T06:19:11;74.15;;;34.22;;
73136;SDS011;67767;45.636;11.756;2024-01-15T06:21:36;75.73;;;34.30;;
73136;SDS011;67767;45.636;11.756;2024-01-15T06:24:02;83.43;;;35.90;;
73136;SDS011;67767;45.636;11.756;2024-01-15T06:26:28;79.27;;;35.27;;
73136;SDS011;67767;45.636;11.756;2024-01-15T06:28:54;71.20;;;33.03;;
73136;SDS011;67767;45.636;11.756;2024-01-15T06:31:19;77.33;;;33.67;;
73136;SDS011;67767;45.636;11.756;2024-01-15T06:33:45;71.68;;;33.67;;
73136;SDS011;67767;45.636;11.756;2024-01-15T06:36:13;81.38;;;35.05;;
73136;SDS011;67767;45.636;11.756;2024-01-15T06:38:39;107.27;;;46.60;;
73136;SDS011;67767;45.636;11.756;2024-01-15T06:41:05;109.03;;;46.17;;
73136;SDS011;67767;45.636;11.756;2024-01-15T06:43:30;85.70;;;40.03;;
73136;SDS011;67767;45.636;11.756;2024-01-15T06:45:56;88.07;;;40.22;;
73136;SDS011;67767;45.636;11.756;2024-01-15T06:48:23;86.40;;;38.07;;
73136;SDS011;67767;45.636;11.756;2024-01-15T06:50:48;78.38;;;36.10;;
73136;SDS011;67767;45.636;11.756;2024-01-15T06:53:14;72.95;;;35.97;;
73136;SDS011;67767;45.636;11.756;2024-01-15T06:55:40;79.57;;;35.57;;
73136;SDS011;67767;45.636;11.756;2024-01-15T06:58:05;71.93;;;35.07;;
73136;SDS011;67767;45.636;11.756;2024-01-15T07:00:31;92.78;;;40.85;;
73136;SDS011;67767;45.636;11.756;2024-01-15T07:02:57;108.70;;;46.73;;
73136;SDS011;67767;45.636;11.756;2024-01-15T07:05:23;105.75;;;44.55;;
73136;SDS011;67767;45.636;11.756;2024-01-15T07:07:49;94.57;;;43.57;;
73136;SDS011;67767;45.636;11.756;2024-01-15T07:10:14;87.30;;;38.30;;
73136;SDS011;67767;45.636;11.756;2024-01-15T07:12:43;87.15;;;39.70;;
73136;SDS011;67767;45.636;11.756;2024-01-15T07:15:09;99.65;;;41.72;;
73136;SDS011;67767;45.636;11.756;2024-01-15T07:17:36;115.07;;;45.97;;
73136;SDS011;67767;45.636;11.756;2024-01-15T07:20:05;108.50;;;45.67;;
73136;SDS011;67767;45.636;11.756;2024-01-15T07:22:33;124.88;;;48.45;;
73136;SDS011;67767;45.636;11.756;2024-01-15T07:24:58;121.63;;;48.80;;
73136;SDS011;67767;45.636;11.756;2024-01-15T07:27:24;109.13;;;44.27;;
73136;SDS011;67767;45.636;11.756;2024-01-15T07:29:50;85.13;;;39.67;;
73136;SDS011;67767;45.636;11.756;2024-01-15T07:32:15;80.77;;;38.17;;
73136;SDS011;67767;45.636;11.756;2024-01-15T07:34:41;85.28;;;40.25;;
73136;SDS011;67767;45.636;11.756;2024-01-15T07:37:07;98.23;;;45.23;;
73136;SDS011;67767;45.636;11.756;2024-01-15T07:39:33;92.03;;;43.22;;
73136;SDS011;67767;45.636;11.756;2024-01-15T07:41:59;92.53;;;45.50;;
73136;SDS011;67767;45.636;11.756;2024-01-15T07:44:25;97.07;;;43.75;;
73136;SDS011;67767;45.636;11.756;2024-01-15T07:46:51;110.40;;;44.97;;
73136;SDS011;67767;45.636;11.756;2024-01-15T07:49:17;105.77;;;44.97;;
73136;SDS011;67767;45.636;11.756;2024-01-15T07:51:42;83.60;;;38.63;;
73136;SDS011;67767;45.636;11.756;2024-01-15T07:54:08;95.10;;;39.47;;
73136;SDS011;67767;45.636;11.756;2024-01-15T07:56:52;87.45;;;38.25;;
73136;SDS011;67767;45.636;11.756;2024-01-15T07:59:22;81.28;;;38.30;;
73136;SDS011;67767;45.636;11.756;2024-01-15T08:01:48;89.70;;;39.05;;
73136;SDS011;67767;45.636;11.756;2024-01-15T08:04:14;85.95;;;38.13;;
73136;SDS011;67767;45.636;11.756;2024-01-15T08:06:40;82.37;;;37.77;;
73136;SDS011;67767;45.636;11.756;2024-01-15T08:09:06;68.60;;;32.78;;
73136;SDS011;67767;45.636;11.756;2024-01-15T08:11:33;77.83;;;36.17;;
73136;SDS011;67767;45.636;11.756;2024-01-15T08:13:59;74.97;;;35.95;;
73136;SDS011;67767;45.636;11.756;2024-01-15T08:16:25;78.35;;;36.53;;
73136;SDS011;67767;45.636;11.756;2024-01-15T08:18:52;71.72;;;34.38;;
73136;SDS011;67767;45.636;11.756;2024-01-15T08:21:18;74.43;;;34.72;;
73136;SDS011;67767;45.636;11.756;2024-01-15T08:23:44;67.00;;;33.13;;
73136;SDS011;67767;45.636;11.756;2024-01-15T08:26:10;74.38;;;35.17;;
73136;SDS011;67767;45.636;11.756;2024-01-15T08:28:36;70.55;;;33.22;;
73136;SDS011;67767;45.636;11.756;2024-01-15T08:31:02;69.60;;;32.50;;
73136;SDS011;67767;45.636;11.756;2024-01-15T08:33:28;66.85;;;32.67;;
73136;SDS011;67767;45.636;11.756;2024-01-15T08:35:54;71.47;;;32.63;;
73136;SDS011;67767;45.636;11.756;2024-01-15T08:38:20;70.47;;;32.23;;
73136;SDS011;67767;45.636;11.756;2024-01-15T08:40:45;66.70;;;32.45;;
73136;SDS011;67767;45.636;11.756;2024-01-15T08:43:11;71.87;;;32.77;;
73136;SDS011;67767;45.636;11.756;2024-01-15T08:45:37;66.43;;;32.88;;
73136;SDS011;67767;45.636;11.756;2024-01-15T08:48:03;76.07;;;35.47;;
73136;SDS011;67767;45.636;11.756;2024-01-15T08:50:29;71.00;;;34.23;;
73136;SDS011;67767;45.636;11.756;2024-01-15T08:52:57;83.32;;;36.50;;
73136;SDS011;67767;45.636;11.756;2024-01-15T08:55:22;67.60;;;34.20;;
73136;SDS011;67767;45.636;11.756;2024-01-15T08:57:48;74.87;;;35.27;;
73136;SDS011;67767;45.636;11.756;2024-01-15T09:00:15;79.80;;;37.38;;
73136;SDS011;67767;45.636;11.756;2024-01-15T09:02:41;69.05;;;35.78;;
73136;SDS011;67767;45.636;11.756;2024-01-15T09:05:07;71.88;;;35.33;;
73136;SDS011;67767;45.636;11.756;2024-01-15T09:07:33;71.07;;;35.63;;
73136;SDS011;67767;45.636;11.756;2024-01-15T09:09:58;79.18;;;37.75;;
73136;SDS011;67767;45.636;11.756;2024-01-15T09:12:25;83.10;;;40.87;;
73136;SDS011;67767;45.636;11.756;2024-01-15T09:14:51;72.93;;;35.50;;
73136;SDS011;67767;45.636;11.756;2024-01-15T09:17:18;64.75;;;31.10;;
73136;SDS011;67767;45.636;11.756;2024-01-15T09:19:44;64.83;;;30.17;;
73136;SDS011;67767;45.636;11.756;2024-01-15T09:22:12;60.45;;;29.90;;
73136;SDS011;67767;45.636;11.756;2024-01-15T09:24:40;62.42;;;30.77;;
73136;SDS011;67767;45.636;11.756;2024-01-15T09:27:06;71.93;;;34.28;;
73136;SDS011;67767;45.636;11.756;2024-01-15T09:29:32;67.43;;;33.43;;
73136;SDS011;67767;45.636;11.756;2024-01-15T09:31:58;69.00;;;33.58;;
73136;SDS011;67767;45.636;11.756;2024-01-15T09:34:23;67.10;;;33.63;;
73136;SDS011;67767;45.636;11.756;2024-01-15T09:36:49;67.50;;;30.67;;
73136;SDS011;67767;45.636;11.756;2024-01-15T09:39:15;65.37;;;30.83;;
73136;SDS011;67767;45.636;11.756;2024-01-15T09:41:40;61.00;;;28.85;;
73136;SDS011;67767;45.636;11.756;2024-01-15T09:44:07;61.03;;;29.73;;
73136;SDS011;67767;45.636;11.756;2024-01-15T09:46:33;56.30;;;28.40;;
73136;SDS011;67767;45.636;11.756;2024-01-15T09:49:00;66.55;;;31.25;;
73136;SDS011;67767;45.636;11.756;2024-01-15T09:51:31;77.55;;;33.28;;
73136;SDS011;67767;45.636;11.756;2024-01-15T09:53:57;70.93;;;33.03;;
73136;SDS011;67767;45.636;11.756;2024-01-15T09:56:23;76.70;;;34.67;;
73136;SDS011;67767;45.636;11.756;2024-01-15T09:58:49;74.03;;;34.88;;
73136;SDS011;67767;45.636;11.756;2024-01-15T10:01:19;61.08;;;30.88;;
73136;SDS011;67767;45.636;11.756;2024-01-15T10:03:46;63.40;;;32.22;;
73136;SDS011;67767;45.636;11.756;2024-01-15T10:06:13;66.22;;;32.40;;
73136;SDS011;67767;45.636;11.756;2024-01-15T10:08:47;65.33;;;32.17;;
73136;SDS011;67767;45.636;11.756;2024-01-15T10:11:16;68.93;;;33.53;;
73136;SDS011;67767;45.636;11.756;2024-01-15T10:13:49;63.33;;;33.00;;
73136;SDS011;67767;45.636;11.756;2024-01-15T10:16:21;60.50;;;31.58;;
73136;SDS011;67767;45.636;11.756;2024-01-15T10:18:47;60.17;;;32.43;;
73136;SDS011;67767;45.636;11.756;2024-01-15T10:21:13;64.15;;;32.45;;
73136;SDS011;67767;45.636;11.756;2024-01-15T10:23:39;63.72;;;32.85;;
73136;SDS011;67767;45.636;11.756;2024-01-15T10:26:05;75.65;;;36.75;;
73136;SDS011;67767;45.636;11.756;2024-01-15T10:28:30;58.33;;;32.53;;
73136;SDS011;67767;45.636;11.756;2024-01-15T10:30:57;63.97;;;33.78;;
73136;SDS011;67767;45.636;11.756;2024-01-15T10:33:24;64.20;;;33.00;;
73136;SDS011;67767;45.636;11.756;2024-01-15T10:35:51;61.17;;;33.50;;
73136;SDS011;67767;45.636;11.756;2024-01-15T10:38:20;57.47;;;32.08;;
73136;SDS011;67767;45.636;11.756;2024-01-15T10:40:55;67.28;;;35.90;;
73136;SDS011;67767;45.636;11.756;2024-01-15T10:43:21;56.95;;;31.00;;
73136;SDS011;67767;45.636;11.756;2024-01-15T10:45:49;57.30;;;32.60;;
73136;SDS011;67767;45.636;11.756;2024-01-15T10:48:18;55.72;;;32.60;;
73136;SDS011;67767;45.636;11.756;2024-01-15T10:50:44;58.28;;;31.88;;
73136;SDS011;67767;45.636;11.756;2024-01-15T10:53:11;64.38;;;33.63;;
73136;SDS011;67767;45.636;11.756;2024-01-15T10:55:38;63.72;;;33.78;;
73136;SDS011;67767;45.636;11.756;2024-01-15T10:58:04;57.67;;;32.23;;
73136;SDS011;67767;45.636;11.756;2024-01-15T11:00:32;59.92;;;33.40;;
73136;SDS011;67767;45.636;11.756;2024-01-15T11:03:03;58.20;;;32.55;;
73136;SDS011;67767;45.636;11.756;2024-01-15T11:05:39;60.22;;;33.67;;
73136;SDS011;67767;45.636;11.756;2024-01-15T11:08:08;57.95;;;33.53;;
73136;SDS011;67767;45.636;11.756;2024-01-15T11:10:37;62.33;;;33.07;;
73136;SDS011;67767;45.636;11.756;2024-01-15T11:13:03;56.13;;;31.25;;
73136;SDS011;67767;45.636;11.756;2024-01-15T11:15:30;53.03;;;31.52;;
73136;SDS011;67767;45.636;11.756;2024-01-15T11:17:59;54.87;;;32.00;;
73136;SDS011;67767;45.636;11.756;2024-01-15T11:20:26;56.03;;;30.53;;
73136;SDS011;67767;45.636;11.756;2024-01-15T11:22:52;53.85;;;31.25;;
73136;SDS011;67767;45.636;11.756;2024-01-15T11:25:18;56.63;;;30.45;;
73136;SDS011;67767;45.636;11.756;2024-01-15T11:27:51;58.43;;;31.33;;
73136;SDS011;67767;45.636;11.756;2024-01-15T11:30:18;56.35;;;31.52;;
73136;SDS011;67767;45.636;11.756;2024-01-15T11:32:45;52.33;;;30.13;;
73136;SDS011;67767;45.636;11.756;2024-01-15T11:35:12;57.47;;;30.70;;
73136;SDS011;67767;45.636;11.756;2024-01-15T11:40:17;59.00;;;30.63;;
73136;SDS011;67767;45.636;11.756;2024-01-15T11:42:44;55.38;;;31.42;;
73136;SDS011;67767;45.636;11.756;2024-01-15T11:45:11;52.65;;;30.88;;
73136;SDS011;67767;45.636;11.756;2024-01-15T11:50:26;56.50;;;31.30;;
73136;SDS011;67767;45.636;11.756;2024-01-15T11:52:58;58.15;;;32.35;;
73136;SDS011;67767;45.636;11.756;2024-01-15T11:55:34;52.25;;;31.08;;
73136;SDS011;67767;45.636;11.756;2024-01-15T11:58:01;54.10;;;30.95;;
73136;SDS011;67767;45.636;11.756;2024-01-15T12:00:28;65.43;;;30.65;;
73136;SDS011;67767;45.636;11.756;2024-01-15T12:02:54;53.97;;;29.57;;
73136;SDS011;67767;45.636;11.756;2024-01-15T12:05:21;52.15;;;30.50;;
73136;SDS011;67767;45.636;11.756;2024-01-15T12:07:49;55.15;;;31.00;;
73136;SDS011;67767;45.636;11.756;2024-01-15T12:10:16;55.00;;;31.60;;
73136;SDS011;67767;45.636;11.756;2024-01-15T12:15:30;63.73;;;34.33;;
73136;SDS011;67767;45.636;11.756;2024-01-15T12:17:57;57.75;;;32.80;;
73136;SDS011;67767;45.636;11.756;2024-01-15T12:20:25;60.45;;;34.33;;
73136;SDS011;67767;45.636;11.756;2024-01-15T12:22:51;62.03;;;34.85;;
73136;SDS011;67767;45.636;11.756;2024-01-15T12:25:17;57.50;;;33.47;;
73136;SDS011;67767;45.636;11.756;2024-01-15T12:27:42;62.33;;;34.57;;
73136;SDS011;67767;45.636;11.756;2024-01-15T12:30:12;55.80;;;31.50;;
73136;SDS011;67767;45.636;11.756;2024-01-15T12:32:41;61.70;;;34.28;;
73136;SDS011;67767;45.636;11.756;2024-01-15T12:35:07;54.95;;;30.95;;
73136;SDS011;67767;45.636;11.756;2024-01-15T12:37:35;59.53;;;32.60;;
73136;SDS011;67767;45.636;11.756;2024-01-15T12:40:01;55.80;;;32.85;;
73136;SDS011;67767;45.636;11.756;2024-01-15T12:42:29;57.88;;;32.60;;
73136;SDS011;67767;45.636;11.756;2024-01-15T12:44:56;56.90;;;31.73;;
73136;SDS011;67767;45.636;11.756;2024-01-15T12:47:22;55.88;;;32.20;;
73136;SDS011;67767;45.636;11.756;2024-01-15T12:49:48;65.28;;;34.53;;
73136;SDS011;67767;45.636;11.756;2024-01-15T12:52:19;59.90;;;33.28;;
73136;SDS011;67767;45.636;11.756;2024-01-15T12:54:46;53.57;;;33.07;;
73136;SDS011;67767;45.636;11.756;2024-01-15T12:57:13;53.83;;;31.20;;
73136;SDS011;67767;45.636;11.756;2024-01-15T12:59:39;56.30;;;33.35;;
73136;SDS011;67767;45.636;11.756;2024-01-15T13:02:05;53.50;;;32.83;;
73136;SDS011;67767;45.636;11.756;2024-01-15T13:04:30;52.97;;;31.92;;
73136;SDS011;67767;45.636;11.756;2024-01-15T13:06:56;55.27;;;32.90;;
73136;SDS011;67767;45.636;11.756;2024-01-15T13:09:22;57.38;;;33.00;;
73136;SDS011;67767;45.636;11.756;2024-01-15T13:11:48;60.33;;;32.40;;
73136;SDS011;67767;45.636;11.756;2024-01-15T13:14:13;52.60;;;30.90;;
73136;SDS011;67767;45.636;11.756;2024-01-15T13:16:42;51.75;;;31.23;;
73136;SDS011;67767;45.636;11.756;2024-01-15T13:19:09;50.83;;;30.07;;
73136;SDS011;67767;45.636;11.756;2024-01-15T13:21:36;53.28;;;31.52;;
73136;SDS011;67767;45.636;11.756;2024-01-15T13:24:02;48.67;;;30.35;;
73136;SDS011;67767;45.636;11.756;2024-01-15T13:26:30;49.67;;;30.90;;
73136;SDS011;67767;45.636;11.756;2024-01-15T13:29:00;47.20;;;29.90;;
73136;SDS011;67767;45.636;11.756;2024-01-15T13:31:26;52.03;;;32.07;;
73136;SDS011;67767;45.636;11.756;2024-01-15T13:33:52;52.63;;;32.25;;
73136;SDS011;67767;45.636;11.756;2024-01-15T13:36:20;53.72;;;32.00;;
73136;SDS011;67767;45.636;11.756;2024-01-15T13:38:46;50.30;;;30.33;;
73136;SDS011;67767;45.636;11.756;2024-01-15T13:41:12;54.60;;;32.10;;
73136;SDS011;67767;45.636;11.756;2024-01-15T13:43:38;55.90;;;32.85;;
73136;SDS011;67767;45.636;11.756;2024-01-15T13:46:03;51.27;;;32.37;;
73136;SDS011;67767;45.636;11.756;2024-01-15T13:48:30;50.45;;;32.60;;
73136;SDS011;67767;45.636;11.756;2024-01-15T13:50:57;53.13;;;32.38;;
73136;SDS011;67767;45.636;11.756;2024-01-15T13:53:23;56.80;;;32.63;;
73136;SDS011;67767;45.636;11.756;2024-01-15T13:55:48;54.17;;;31.53;;
73136;SDS011;67767;45.636;11.756;2024-01-15T13:58:14;52.63;;;32.28;;
73136;SDS011;67767;45.636;11.756;2024-01-15T14:00:39;53.53;;;32.43;;
73136;SDS011;67767;45.636;11.756;2024-01-15T14:03:06;63.55;;;33.40;;
73136;SDS011;67767;45.636;11.756;2024-01-15T14:05:31;56.67;;;33.43;;
73136;SDS011;67767;45.636;11.756;2024-01-15T14:07:57;51.75;;;31.70;;
73136;SDS011;67767;45.636;11.756;2024-01-15T14:10:23;50.47;;;31.08;;